sensor_id;sensor_type;location;lat;lon;timestamp;temperature;humidity
21019;DHT22;10667;51.056;3.732;2024-02-04T00:01:29;12.10;99.90
21019;DHT22;10667;51.056;3.732;2024-02-04T00:03:55;11.90;99.90
21019;DHT22;10667;51.056;3.732;2024-02-04T00:06:20;12.00;99.90
21019;DHT22;10667;51.056;3.732;2024-02-04T00:08:46;11.90;99.90
21019;DHT22;10667;51.056;3.732;2024-02-04T00:11:12;12.00;99.90
21019;DHT22;10667;51.056;3.732;2024-02-04T00:13:38;12.00;99.90
21019;DHT22;10667;51.056;3.732;2024-02-04T00:16:04;12.00;99.90
21019;DHT22;10667;51.056;3.732;2024-02-04T00:18:30;12.00;99.90
21019;DHT22;10667;51.056;3.732;2024-02-04T00:20:56;12.10;99.90
21019;DHT22;10667;51.056;3.732;2024-02-04T00:23:22;12.20;99.90
21019;DHT22;10667;51.056;3.732;2024-02-04T00:25:47;12.00;99.90
21019;DHT22;10667;51.056;3.732;2024-02-04T00:28:13;12.00;99.90
21019;DHT22;10667;51.056;3.732;2024-02-04T00:30:38;12.10;99.90
21019;DHT22;10667;51.056;3.732;2024-02-04T00:33:04;12.20;99.90
21019;DHT22;10667;51.056;3.732;2024-02-04T00:35:30;12.10;99.90
21019;DHT22;10667;51.056;3.732;2024-02-04T00:37:56;11.90;99.90
21019;DHT22;10667;51.056;3.732;2024-02-04T00:40:22;11.90;99.90
21019;DHT22;10667;51.056;3.732;2024-02-04T00:42:48;11.90;99.90
21019;DHT22;10667;51.056;3.732;2024-02-04T00:45:14;12.00;99.90
21019;DHT22;10667;51.056;3.732;2024-02-04T00:47:39;11.80;99.90
21019;DHT22;10667;51.056;3.732;2024-02-04T00:50:06;11.80;99.90
21019;DHT22;10667;51.056;3.732;2024-02-04T00:52:31;11.80;99.90
21019;DHT22;10667;51.056;3.732;2024-02-04T00:54:57;11.90;99.90
21019;DHT22;10667;51.056;3.732;2024-02-04T00:57:23;11.90;99.90
21019;DHT22;10667;51.056;3.732;2024-02-04T00:59:48;11.90;99.90
21019;DHT22;10667;51.056;3.732;2024-02-04T01:02:15;12.00;99.90
21019;DHT22;10667;51.056;3.732;2024-02-04T01:04:41;12.00;99.90
21019;DHT22;10667;51.056;3.732;2024-02-04T01:07:07;12.00;99.90
21019;DHT22;10667;51.056;3.732;2024-02-04T01:09:32;12.10;99.90
21019;DHT22;10667;51.056;3.732;2024-02-04T01:11:58;12.10;99.90
21019;DHT22;10667;51.056;3.732;2024-02-04T01:14:23;12.10;99.90
21019;DHT22;10667;51.056;3.732;2024-02-04T01:16:49;12.10;99.90
21019;DHT22;10667;51.056;3.732;2024-02-04T01:19:15;11.90;99.90
21019;DHT22;10667;51.056;3.732;2024-02-04T01:21:40;11.80;99.90
21019;DHT22;10667;51.056;3.732;2024-02-04T01:24:06;11.90;99.90
21019;DHT22;10667;51.056;3.732;2024-02-04T01:26:32;11.90;99.90
21019;DHT22;10667;51.056;3.732;2024-02-04T01:28:57;12.10;99.90
21019;DHT22;10667;51.056;3.732;2024-02-04T01:31:23;12.10;99.90
21019;DHT22;10667;51.056;3.732;2024-02-04T01:33:49;12.10;99.90
21019;DHT22;10667;51.056;3.732;2024-02-04T01:36:14;12.10;99.90
21019;DHT22;10667;51.056;3.732;2024-02-04T01:38:40;12.00;99.90
21019;DHT22;10667;51.056;3.732;2024-02-04T01:41:05;12.10;99.90
21019;DHT22;10667;51.056;3.732;2024-02-04T01:43:31;12.20;99.90
21019;DHT22;10667;51.056;3.732;2024-02-04T01:45:57;12.10;99.90
21019;DHT22;10667;51.056;3.732;2024-02-04T01:48:23;12.10;99.90
21019;DHT22;10667;51.056;3.732;2024-02-04T01:50:50;12.10;99.90
21019;DHT22;10667;51.056;3.732;2024-02-04T01:53:19;12.20;99.90
21019;DHT22;10667;51.056;3.732;2024-02-04T01:55:47;12.20;99.90
21019;DHT22;10667;51.056;3.732;2024-02-04T01:58:15;12.20;99.90
21019;DHT22;10667;51.056;3.732;2024-02-04T02:00:40;12.10;99.90
21019;DHT22;10667;51.056;3.732;2024-02-04T02:03:06;12.10;99.90
21019;DHT22;10667;51.056;3.732;2024-02-04T02:05:33;12.20;99.90
21019;DHT22;10667;51.056;3.732;2024-02-04T02:08:00;12.20;99.90
21019;DHT22;10667;51.056;3.732;2024-02-04T02:10:25;12.40;99.90
21019;DHT22;10667;51.056;3.732;2024-02-04T02:13:00;12.30;99.90
21019;DHT22;10667;51.056;3.732;2024-02-04T02:15:34;12.30;99.90
21019;DHT22;10667;51.056;3.732;2024-02-04T02:23:30;12.10;99.90
21019;DHT22;10667;51.056;3.732;2024-02-04T02:25:59;12.10;99.90
21019;DHT22;10667;51.056;3.732;2024-02-04T02:28:25;12.10;99.90
21019;DHT22;10667;51.056;3.732;2024-02-04T02:30:51;12.30;99.90
21019;DHT22;10667;51.056;3.732;2024-02-04T02:33:17;12.30;99.90
21019;DHT22;10667;51.056;3.732;2024-02-04T02:35:44;12.30;99.90
21019;DHT22;10667;51.056;3.732;2024-02-04T02:38:33;12.30;99.90
21019;DHT22;10667;51.056;3.732;2024-02-04T02:41:04;12.50;99.90
21019;DHT22;10667;51.056;3.732;2024-02-04T02:43:32;12.50;99.90
21019;DHT22;10667;51.056;3.732;2024-02-04T02:45:58;12.40;99.90
21019;DHT22;10667;51.056;3.732;2024-02-04T02:48:25;12.30;99.90
21019;DHT22;10667;51.056;3.732;2024-02-04T02:50:50;12.20;99.90
21019;DHT22;10667;51.056;3.732;2024-02-04T02:53:16;12.10;99.90
21019;DHT22;10667;51.056;3.732;2024-02-04T02:55:44;12.10;99.90
21019;DHT22;10667;51.056;3.732;2024-02-04T02:58:12;12.10;99.90
21019;DHT22;10667;51.056;3.732;2024-02-04T03:00:38;12.10;99.90
21019;DHT22;10667;51.056;3.732;2024-02-04T03:03:03;12.00;99.90
21019;DHT22;10667;51.056;3.732;2024-02-04T03:05:29;12.00;99.90
21019;DHT22;10667;51.056;3.732;2024-02-04T03:07:55;11.90;99.90
21019;DHT22;10667;51.056;3.732;2024-02-04T03:10:21;11.90;99.90
21019;DHT22;10667;51.056;3.732;2024-02-04T03:12:46;11.90;99.90
21019;DHT22;10667;51.056;3.732;2024-02-04T03:15:12;11.90;99.90
21019;DHT22;10667;51.056;3.732;2024-02-04T03:17:38;12.00;99.90
21019;DHT22;10667;51.056;3.732;2024-02-04T03:20:04;11.90;99.90
21019;DHT22;10667;51.056;3.732;2024-02-04T03:22:30;11.90;99.90
21019;DHT22;10667;51.056;3.732;2024-02-04T03:24:55;11.80;99.90
21019;DHT22;10667;51.056;3.732;2024-02-04T03:27:21;11.80;99.90
21019;DHT22;10667;51.056;3.732;2024-02-04T03:29:46;11.80;99.90
21019;DHT22;10667;51.056;3.732;2024-02-04T03:32:12;11.80;99.90
21019;DHT22;10667;51.056;3.732;2024-02-04T03:34:38;11.70;99.90
21019;DHT22;10667;51.056;3.732;2024-02-04T03:37:05;11.70;99.90
21019;DHT22;10667;51.056;3.732;2024-02-04T03:39:30;11.80;99.90
21019;DHT22;10667;51.056;3.732;2024-02-04T03:41:56;11.80;99.90
21019;DHT22;10667;51.056;3.732;2024-02-04T03:44:22;11.80;99.90
21019;DHT22;10667;51.056;3.732;2024-02-04T03:46:48;11.90;99.90
21019;DHT22;10667;51.056;3.732;2024-02-04T03:49:14;11.80;99.90
21019;DHT22;10667;51.056;3.732;2024-02-04T03:51:40;11.80;99.90
21019;DHT22;10667;51.056;3.732;2024-02-04T03:54:05;11.80;99.90
21019;DHT22;10667;51.056;3.732;2024-02-04T03:56:31;11.80;99.90
21019;DHT22;10667;51.056;3.732;2024-02-04T03:58:57;11.70;99.90
21019;DHT22;10667;51.056;3.732;2024-02-04T04:01:22;11.90;99.90
21019;DHT22;10667;51.056;3.732;2024-02-04T04:03:49;12.00;99.90
21019;DHT22;10667;51.056;3.732;2024-02-04T04:06:15;11.90;99.90
21019;DHT22;10667;51.056;3.732;2024-02-04T04:08:40;12.10;99.90
21019;DHT22;10667;51.056;3.732;2024-02-04T04:11:08;11.90;99.90
21019;DHT22;10667;51.056;3.732;2024-02-04T04:13:34;12.00;99.90
21019;DHT22;10667;51.056;3.732;2024-02-04T04:16:00;12.00;99.90
21019;DHT22;10667;51.056;3.732;2024-02-04T04:18:26;12.00;99.90
21019;DHT22;10667;51.056;3.732;2024-02-04T04:20:52;11.90;99.90
21019;DHT22;10667;51.056;3.732;2024-02-04T04:23:17;11.90;99.90
21019;DHT22;10667;51.056;3.732;2024-02-04T04:25:43;12.10;99.90
21019;DHT22;10667;51.056;3.732;2024-02-04T04:28:09;12.10;99.90
21019;DHT22;10667;51.056;3.732;2024-02-04T04:30:34;11.90;99.90
21019;DHT22;10667;51.056;3.732;2024-02-04T04:33:00;12.00;99.90
21019;DHT22;10667;51.056;3.732;2024-02-04T04:35:25;12.10;99.90
21019;DHT22;10667;51.056;3.732;2024-02-04T04:37:52;12.20;99.90
21019;DHT22;10667;51.056;3.732;2024-02-04T04:40:18;12.10;99.90
21019;DHT22;10667;51.056;3.732;2024-02-04T04:42:44;12.00;99.90
21019;DHT22;10667;51.056;3.732;2024-02-04T04:45:10;12.00;99.90
21019;DHT22;10667;51.056;3.732;2024-02-04T04:47:36;11.90;99.90
21019;DHT22;10667;51.056;3.732;2024-02-04T04:50:02;12.00;99.90
21019;DHT22;10667;51.056;3.732;2024-02-04T04:52:28;12.00;99.90
21019;DHT22;10667;51.056;3.732;2024-02-04T04:54:55;12.00;99.90
21019;DHT22;10667;51.056;3.732;2024-02-04T04:57:21;11.90;99.90
21019;DHT22;10667;51.056;3.732;2024-02-04T04:59:46;12.00;99.90
21019;DHT22;10667;51.056;3.732;2024-02-04T05:02:12;12.00;99.90
21019;DHT22;10667;51.056;3.732;2024-02-04T05:04:38;12.00;99.90
21019;DHT22;10667;51.056;3.732;2024-02-04T05:07:03;12.00;99.90
21019;DHT22;10667;51.056;3.732;2024-02-04T05:09:29;12.00;99.90
21019;DHT22;10667;51.056;3.732;2024-02-04T05:11:54;12.10;99.90
21019;DHT22;10667;51.056;3.732;2024-02-04T05:14:20;12.10;99.90
21019;DHT22;10667;51.056;3.732;2024-02-04T05:16:46;12.00;99.90
21019;DHT22;10667;51.056;3.732;2024-02-04T05:19:12;12.10;99.90
21019;DHT22;10667;51.056;3.732;2024-02-04T05:21:39;12.10;99.90
21019;DHT22;10667;51.056;3.732;2024-02-04T05:24:05;12.00;99.90
21019;DHT22;10667;51.056;3.732;2024-02-04T05:26:31;12.00;99.90
21019;DHT22;10667;51.056;3.732;2024-02-04T05:28:57;12.10;99.90
21019;DHT22;10667;51.056;3.732;2024-02-04T05:31:22;12.00;99.90
21019;DHT22;10667;51.056;3.732;2024-02-04T05:33:48;12.00;99.90
21019;DHT22;10667;51.056;3.732;2024-02-04T05:36:13;12.00;99.90
21019;DHT22;10667;51.056;3.732;2024-02-04T05:38:42;11.90;99.90
21019;DHT22;10667;51.056;3.732;2024-02-04T05:41:08;11.80;99.90
21019;DHT22;10667;51.056;3.732;2024-02-04T05:43:33;11.80;99.90
21019;DHT22;10667;51.056;3.732;2024-02-04T05:45:59;11.90;99.90
21019;DHT22;10667;51.056;3.732;2024-02-04T05:48:24;12.00;99.90
21019;DHT22;10667;51.056;3.732;2024-02-04T05:50:50;12.00;99.90
21019;DHT22;10667;51.056;3.732;2024-02-04T05:53:16;11.90;99.90
21019;DHT22;10667;51.056;3.732;2024-02-04T05:55:41;11.90;99.90
21019;DHT22;10667;51.056;3.732;2024-02-04T05:58:07;11.80;99.90
21019;DHT22;10667;51.056;3.732;2024-02-04T06:00:32;11.80;99.90
21019;DHT22;10667;51.056;3.732;2024-02-04T06:02:58;11.80;99.90
21019;DHT22;10667;51.056;3.732;2024-02-04T06:05:23;11.70;99.90
21019;DHT22;10667;51.056;3.732;2024-02-04T06:07:49;11.70;99.90
21019;DHT22;10667;51.056;3.732;2024-02-04T06:10:15;11.80;99.90
21019;DHT22;10667;51.056;3.732;2024-02-04T06:12:40;11.90;99.90
21019;DHT22;10667;51.056;3.732;2024-02-04T06:15:13;11.90;99.90
21019;DHT22;10667;51.056;3.732;2024-02-04T06:17:39;12.00;99.90
21019;DHT22;10667;51.056;3.732;2024-02-04T06:20:05;11.90;99.90
21019;DHT22;10667;51.056;3.732;2024-02-04T06:22:32;11.90;99.90
21019;DHT22;10667;51.056;3.732;2024-02-04T06:24:57;11.80;99.90
21019;DHT22;10667;51.056;3.732;2024-02-04T06:27:23;11.70;99.90
21019;DHT22;10667;51.056;3.732;2024-02-04T06:29:49;11.70;99.90
21019;DHT22;10667;51.056;3.732;2024-02-04T06:32:14;11.70;99.90
21019;DHT22;10667;51.056;3.732;2024-02-04T06:34:40;11.80;99.90
21019;DHT22;10667;51.056;3.732;2024-02-04T06:37:05;11.70;99.90
21019;DHT22;10667;51.056;3.732;2024-02-04T06:39:31;11.70;99.90
21019;DHT22;10667;51.056;3.732;2024-02-04T06:41:57;11.60;99.90
21019;DHT22;10667;51.056;3.732;2024-02-04T06:44:22;11.60;99.90
21019;DHT22;10667;51.056;3.732;2024-02-04T06:46:48;11.70;99.90
21019;DHT22;10667;51.056;3.732;2024-02-04T06:49:13;11.60;99.90
21019;DHT22;10667;51.056;3.732;2024-02-04T06:51:43;11.70;99.90
21019;DHT22;10667;51.056;3.732;2024-02-04T06:54:10;11.70;99.90
21019;DHT22;10667;51.056;3.732;2024-02-04T06:56:35;11.80;99.90
21019;DHT22;10667;51.056;3.732;2024-02-04T06:59:02;11.80;99.90
21019;DHT22;10667;51.056;3.732;2024-02-04T07:01:28;11.80;99.90
21019;DHT22;10667;51.056;3.732;2024-02-04T07:03:53;11.90;99.90
21019;DHT22;10667;51.056;3.732;2024-02-04T07:06:19;11.80;99.90
21019;DHT22;10667;51.056;3.732;2024-02-04T07:08:44;11.70;99.90
21019;DHT22;10667;51.056;3.732;2024-02-04T07:11:10;11.70;99.90
21019;DHT22;10667;51.056;3.732;2024-02-04T07:13:36;11.80;99.90
21019;DHT22;10667;51.056;3.732;2024-02-04T07:16:01;11.80;99.90
21019;DHT22;10667;51.056;3.732;2024-02-04T07:18:27;11.90;99.90
21019;DHT22;10667;51.056;3.732;2024-02-04T07:20:52;12.10;99.90
21019;DHT22;10667;51.056;3.732;2024-02-04T07:23:18;12.00;99.90
21019;DHT22;10667;51.056;3.732;2024-02-04T07:25:44;12.00;99.90
21019;DHT22;10667;51.056;3.732;2024-02-04T07:28:09;12.00;99.90
21019;DHT22;10667;51.056;3.732;2024-02-04T07:30:35;12.00;99.90
21019;DHT22;10667;51.056;3.732;2024-02-04T07:33:00;12.10;99.90
21019;DHT22;10667;51.056;3.732;2024-02-04T07:35:26;12.20;99.90
21019;DHT22;10667;51.056;3.732;2024-02-04T07:37:52;12.10;99.90
21019;DHT22;10667;51.056;3.732;2024-02-04T07:40:17;12.20;99.90
21019;DHT22;10667;51.056;3.732;2024-02-04T07:42:43;12.10;99.90
21019;DHT22;10667;51.056;3.732;2024-02-04T07:45:09;12.20;99.90
21019;DHT22;10667;51.056;3.732;2024-02-04T07:47:35;12.10;99.90
21019;DHT22;10667;51.056;3.732;2024-02-04T07:50:01;12.10;99.90
21019;DHT22;10667;51.056;3.732;2024-02-04T07:52:27;12.10;99.90
21019;DHT22;10667;51.056;3.732;2024-02-04T07:54:52;12.10;99.90
21019;DHT22;10667;51.056;3.732;2024-02-04T07:57:18;12.10;99.90
21019;DHT22;10667;51.056;3.732;2024-02-04T07:59:44;12.10;99.90
21019;DHT22;10667;51.056;3.732;2024-02-04T08:02:09;12.20;99.90
21019;DHT22;10667;51.056;3.732;2024-02-04T08:04:35;12.30;99.90
21019;DHT22;10667;51.056;3.732;2024-02-04T08:07:00;12.30;99.90
21019;DHT22;10667;51.056;3.732;2024-02-04T08:09:26;12.30;99.90
21019;DHT22;10667;51.056;3.732;2024-02-04T08:11:51;12.30;99.90
21019;DHT22;10667;51.056;3.732;2024-02-04T08:14:17;12.30;99.90
21019;DHT22;10667;51.056;3.732;2024-02-04T08:16:43;12.30;99.90
21019;DHT22;10667;51.056;3.732;2024-02-04T08:19:11;12.30;99.90
21019;DHT22;10667;51.056;3.732;2024-02-04T08:21:37;12.30;99.90
21019;DHT22;10667;51.056;3.732;2024-02-04T08:24:03;12.30;99.90
21019;DHT22;10667;51.056;3.732;2024-02-04T08:26:28;12.30;99.90
21019;DHT22;10667;51.056;3.732;2024-02-04T08:28:54;12.30;99.90
21019;DHT22;10667;51.056;3.732;2024-02-04T08:31:20;12.30;99.90
21019;DHT22;10667;51.056;3.732;2024-02-04T08:33:46;12.40;99.90
21019;DHT22;10667;51.056;3.732;2024-02-04T08:36:12;12.40;99.90
21019;DHT22;10667;51.056;3.732;2024-02-04T08:38:37;12.60;99.90
21019;DHT22;10667;51.056;3.732;2024-02-04T08:41:04;12.50;99.90
21019;DHT22;10667;51.056;3.732;2024-02-04T08:43:29;12.70;99.90
21019;DHT22;10667;51.056;3.732;2024-02-04T08:45:55;12.70;99.90
21019;DHT22;10667;51.056;3.732;2024-02-04T08:48:21;12.70;99.90
21019;DHT22;10667;51.056;3.732;2024-02-04T08:50:46;12.70;99.90
21019;DHT22;10667;51.056;3.732;2024-02-04T08:53:12;12.60;99.90
21019;DHT22;10667;51.056;3.732;2024-02-04T08:55:37;12.70;99.90
21019;DHT22;10667;51.056;3.732;2024-02-04T08:58:03;12.60;99.90
21019;DHT22;10667;51.056;3.732;2024-02-04T09:00:29;12.60;99.90
21019;DHT22;10667;51.056;3.732;2024-02-04T09:02:55;12.60;99.90
21019;DHT22;10667;51.056;3.732;2024-02-04T09:05:21;12.60;99.90
21019;DHT22;10667;51.056;3.732;2024-02-04T09:07:46;12.70;99.90
21019;DHT22;10667;51.056;3.732;2024-02-04T09:10:12;12.70;99.90
21019;DHT22;10667;51.056;3.732;2024-02-04T09:12:38;12.80;99.90
21019;DHT22;10667;51.056;3.732;2024-02-04T09:15:05;12.80;99.90
21019;DHT22;10667;51.056;3.732;2024-02-04T09:17:31;12.80;99.90
21019;DHT22;10667;51.056;3.732;2024-02-04T09:19:59;12.60;99.90
21019;DHT22;10667;51.056;3.732;2024-02-04T09:22:25;12.60;99.90
21019;DHT22;10667;51.056;3.732;2024-02-04T09:24:50;12.60;99.90
21019;DHT22;10667;51.056;3.732;2024-02-04T09:27:16;12.70;99.90
21019;DHT22;10667;51.056;3.732;2024-02-04T09:29:42;12.80;99.90
21019;DHT22;10667;51.056;3.732;2024-02-04T09:32:07;12.90;99.90
21019;DHT22;10667;51.056;3.732;2024-02-04T09:34:33;12.70;99.90
21019;DHT22;10667;51.056;3.732;2024-02-04T09:36:59;12.70;99.90
21019;DHT22;10667;51.056;3.732;2024-02-04T09:39:25;12.70;99.90
21019;DHT22;10667;51.056;3.732;2024-02-04T09:41:50;12.80;99.90
21019;DHT22;10667;51.056;3.732;2024-02-04T09:44:17;12.80;99.90
21019;DHT22;10667;51.056;3.732;2024-02-04T09:46:43;12.80;99.90
21019;DHT22;10667;51.056;3.732;2024-02-04T09:49:09;12.90;99.90
21019;DHT22;10667;51.056;3.732;2024-02-04T09:51:35;12.90;99.90
21019;DHT22;10667;51.056;3.732;2024-02-04T09:54:04;12.90;99.90
21019;DHT22;10667;51.056;3.732;2024-02-04T09:56:33;13.00;99.90
21019;DHT22;10667;51.056;3.732;2024-02-04T09:59:00;13.00;99.90
21019;DHT22;10667;51.056;3.732;2024-02-04T10:01:26;13.20;99.90
21019;DHT22;10667;51.056;3.732;2024-02-04T10:03:52;13.30;99.90
21019;DHT22;10667;51.056;3.732;2024-02-04T10:06:17;13.30;99.90
21019;DHT22;10667;51.056;3.732;2024-02-04T10:08:43;13.30;99.90
21019;DHT22;10667;51.056;3.732;2024-02-04T10:11:11;13.20;99.90
21019;DHT22;10667;51.056;3.732;2024-02-04T10:16:10;13.20;99.90
21019;DHT22;10667;51.056;3.732;2024-02-04T10:18:36;13.10;99.90
21019;DHT22;10667;51.056;3.732;2024-02-04T10:21:02;13.00;99.90
21019;DHT22;10667;51.056;3.732;2024-02-04T10:23:28;13.10;99.90
21019;DHT22;10667;51.056;3.732;2024-02-04T10:26:00;13.10;99.90
21019;DHT22;10667;51.056;3.732;2024-02-04T10:28:25;13.20;99.90
21019;DHT22;10667;51.056;3.732;2024-02-04T10:30:52;13.20;99.90
21019;DHT22;10667;51.056;3.732;2024-02-04T10:33:17;13.20;99.90
21019;DHT22;10667;51.056;3.732;2024-02-04T10:35:43;13.10;99.90
21019;DHT22;10667;51.056;3.732;2024-02-04T10:38:09;13.00;99.90
21019;DHT22;10667;51.056;3.732;2024-02-04T10:40:35;13.00;99.90
21019;DHT22;10667;51.056;3.732;2024-02-04T10:43:04;13.00;99.90
21019;DHT22;10667;51.056;3.732;2024-02-04T10:45:32;13.10;99.90
21019;DHT22;10667;51.056;3.732;2024-02-04T10:48:02;13.10;99.90
21019;DHT22;10667;51.056;3.732;2024-02-04T10:50:30;13.20;99.90
21019;DHT22;10667;51.056;3.732;2024-02-04T10:52:58;13.30;99.90
21019;DHT22;10667;51.056;3.732;2024-02-04T10:55:30;13.30;99.90
21019;DHT22;10667;51.056;3.732;2024-02-04T10:57:56;13.10;99.90
21019;DHT22;10667;51.056;3.732;2024-02-04T11:00:23;13.20;99.90
21019;DHT22;10667;51.056;3.732;2024-02-04T11:02:49;13.20;99.90
21019;DHT22;10667;51.056;3.732;2024-02-04T11:05:17;13.30;99.90
21019;DHT22;10667;51.056;3.732;2024-02-04T11:07:43;13.30;99.90
21019;DHT22;10667;51.056;3.732;2024-02-04T11:10:10;13.40;99.90
21019;DHT22;10667;51.056;3.732;2024-02-04T11:12:38;13.30;99.90
21019;DHT22;10667;51.056;3.732;2024-02-04T11:15:09;13.40;99.90
21019;DHT22;10667;51.056;3.732;2024-02-04T11:17:55;13.50;99.90
21019;DHT22;10667;51.056;3.732;2024-02-04T11:23:37;13.30;99.90
21019;DHT22;10667;51.056;3.732;2024-02-04T11:26:05;13.40;99.90
21019;DHT22;10667;51.056;3.732;2024-02-04T11:28:31;13.40;99.90
21019;DHT22;10667;51.056;3.732;2024-02-04T11:30:58;13.50;99.90
21019;DHT22;10667;51.056;3.732;2024-02-04T11:33:24;13.60;99.90
21019;DHT22;10667;51.056;3.732;2024-02-04T11:36:18;13.50;99.90
21019;DHT22;10667;51.056;3.732;2024-02-04T11:38:49;13.40;99.90
21019;DHT22;10667;51.056;3.732;2024-02-04T11:41:23;13.40;99.90
21019;DHT22;10667;51.056;3.732;2024-02-04T11:43:54;13.30;99.90
21019;DHT22;10667;51.056;3.732;2024-02-04T11:46:20;13.30;99.90
21019;DHT22;10667;51.056;3.732;2024-02-04T11:48:55;13.30;99.90
21019;DHT22;10667;51.056;3.732;2024-02-04T11:51:24;13.30;99.90
21019;DHT22;10667;51.056;3.732;2024-02-04T11:53:51;13.30;99.90
21019;DHT22;10667;51.056;3.732;2024-02-04T11:56:19;13.30;99.90
21019;DHT22;10667;51.056;3.732;2024-02-04T11:58:46;13.20;99.90
21019;DHT22;10667;51.056;3.732;2024-02-04T12:01:12;13.30;99.90
21019;DHT22;10667;51.056;3.732;2024-02-04T12:03:38;13.40;99.90
21019;DHT22;10667;51.056;3.732;2024-02-04T12:06:04;13.50;99.90
21019;DHT22;10667;51.056;3.732;2024-02-04T12:08:33;13.30;99.90
21019;DHT22;10667;51.056;3.732;2024-02-04T12:11:00;13.30;99.90
21019;DHT22;10667;51.056;3.732;2024-02-04T12:13:28;13.30;99.90
21019;DHT22;10667;51.056;3.732;2024-02-04T12:15:54;13.40;99.90
21019;DHT22;10667;51.056;3.732;2024-02-04T12:18:19;13.40;99.90
21019;DHT22;10667;51.056;3.732;2024-02-04T12:20:47;13.40;99.90
21019;DHT22;10667;51.056;3.732;2024-02-04T12:23:14;13.30;99.90
21019;DHT22;10667;51.056;3.732;2024-02-04T12:25:40;13.30;99.90
21019;DHT22;10667;51.056;3.732;2024-02-04T12:28:06;13.30;99.90
21019;DHT22;10667;51.056;3.732;2024-02-04T12:30:32;13.30;99.90
21019;DHT22;10667;51.056;3.732;2024-02-04T12:33:00;13.20;99.90
21019;DHT22;10667;51.056;3.732;2024-02-04T12:35:27;13.30;99.90
21019;DHT22;10667;51.056;3.732;2024-02-04T12:37:54;13.20;99.90
21019;DHT22;10667;51.056;3.732;2024-02-04T12:40:30;13.10;99.90
21019;DHT22;10667;51.056;3.732;2024-02-04T12:45:23;13.00;99.90
21019;DHT22;10667;51.056;3.732;2024-02-04T12:47:54;13.10;99.90
21019;DHT22;10667;51.056;3.732;2024-02-04T12:50:20;13.10;99.90
21019;DHT22;10667;51.056;3.732;2024-02-04T12:52:47;13.10;99.90
21019;DHT22;10667;51.056;3.732;2024-02-04T12:55:32;13.20;99.90
21019;DHT22;10667;51.056;3.732;2024-02-04T12:58:06;13.30;99.90
21019;DHT22;10667;51.056;3.732;2024-02-04T13:00:35;13.30;99.90
21019;DHT22;10667;51.056;3.732;2024-02-04T13:03:04;13.30;99.90
21019;DHT22;10667;51.056;3.732;2024-02-04T13:05:31;13.20;99.90
21019;DHT22;10667;51.056;3.732;2024-02-04T13:08:01;13.10;99.90
21019;DHT22;10667;51.056;3.732;2024-02-04T13:10:35;13.10;99.90
21019;DHT22;10667;51.056;3.732;2024-02-04T13:13:03;13.20;99.90
21019;DHT22;10667;51.056;3.732;2024-02-04T13:15:31;13.20;99.90
21019;DHT22;10667;51.056;3.732;2024-02-04T13:17:57;13.20;99.90
21019;DHT22;10667;51.056;3.732;2024-02-04T13:20:23;13.30;99.90
21019;DHT22;10667;51.056;3.732;2024-02-04T13:22:49;13.30;99.90
21019;DHT22;10667;51.056;3.732;2024-02-04T13:25:15;13.20;99.90
21019;DHT22;10667;51.056;3.732;2024-02-04T13:27:41;13.20;99.90
21019;DHT22;10667;51.056;3.732;2024-02-04T13:30:07;13.40;99.90
21019;DHT22;10667;51.056;3.732;2024-02-04T13:32:40;13.30;99.90
21019;DHT22;10667;51.056;3.732;2024-02-04T13:35:07;13.30;99.90
21019;DHT22;10667;51.056;3.732;2024-02-04T13:37:36;13.40;99.90
21019;DHT22;10667;51.056;3.732;2024-02-04T13:40:03;13.40;99.90
21019;DHT22;10667;51.056;3.732;2024-02-04T13:42:31;13.40;99.90
21019;DHT22;10667;51.056;3.732;2024-02-04T13:44:57;13.40;99.90
21019;DHT22;10667;51.056;3.732;2024-02-04T13:47:22;13.50;99.90
21019;DHT22;10667;51.056;3.732;2024-02-04T13:49:48;13.70;99.90
21019;DHT22;10667;51.056;3.732;2024-02-04T13:52:14;13.70;99.90
21019;DHT22;10667;51.056;3.732;2024-02-04T13:54:39;13.60;99.90
21019;DHT22;10667;51.056;3.732;2024-02-04T13:57:05;13.70;99.90
21019;DHT22;10667;51.056;3.732;2024-02-04T13:59:31;13.50;99.90
21019;DHT22;10667;51.056;3.732;2024-02-04T14:01:56;13.40;99.90
21019;DHT22;10667;51.056;3.732;2024-02-04T14:04:22;13.40;99.90
21019;DHT22;10667;51.056;3.732;2024-02-04T14:06:48;13.40;99.90
21019;DHT22;10667;51.056;3.732;2024-02-04T14:09:13;13.30;99.90
21019;DHT22;10667;51.056;3.732;2024-02-04T14:11:40;13.50;99.90
21019;DHT22;10667;51.056;3.732;2024-02-04T14:14:06;13.40;99.90
21019;DHT22;10667;51.056;3.732;2024-02-04T14:16:32;13.40;99.90
21019;DHT22;10667;51.056;3.732;2024-02-04T14:18:57;13.40;99.90
21019;DHT22;10667;51.056;3.732;2024-02-04T14:21:23;13.40;99.90
21019;DHT22;10667;51.056;3.732;2024-02-04T14:23:49;13.50;99.90
21019;DHT22;10667;51.056;3.732;2024-02-04T14:26:18;13.50;99.90
21019;DHT22;10667;51.056;3.732;2024-02-04T14:28:44;13.70;99.90
21019;DHT22;10667;51.056;3.732;2024-02-04T14:31:10;13.60;99.90
21019;DHT22;10667;51.056;3.732;2024-02-04T14:33:35;13.60;99.90
21019;DHT22;10667;51.056;3.732;2024-02-04T14:36:01;13.50;99.90
21019;DHT22;10667;51.056;3.732;2024-02-04T14:38:27;13.50;99.90
21019;DHT22;10667;51.056;3.732;2024-02-04T14:40:52;13.40;99.90
21019;DHT22;10667;51.056;3.732;2024-02-04T14:43:18;13.40;99.90
21019;DHT22;10667;51.056;3.732;2024-02-04T14:45:47;13.40;99.90
21019;DHT22;10667;51.056;3.732;2024-02-04T14:48:12;13.30;99.90
21019;DHT22;10667;51.056;3.732;2024-02-04T14:50:38;13.40;99.90
21019;DHT22;10667;51.056;3.732;2024-02-04T14:53:04;13.40;99.90
21019;DHT22;10667;51.056;3.732;2024-02-04T14:55:29;13.40;99.90
21019;DHT22;10667;51.056;3.732;2024-02-04T14:57:55;13.40;99.90
21019;DHT22;10667;51.056;3.732;2024-02-04T15:00:21;13.40;99.90
21019;DHT22;10667;51.056;3.732;2024-02-04T15:02:50;13.50;99.90
21019;DHT22;10667;51.056;3.732;2024-02-04T15:05:16;13.30;99.90
21019;DHT22;10667;51.056;3.732;2024-02-04T15:07:42;13.30;99.90
21019;DHT22;10667;51.056;3.732;2024-02-04T15:10:08;13.30;99.90
21019;DHT22;10667;51.056;3.732;2024-02-04T15:12:38;13.40;99.90
21019;DHT22;10667;51.056;3.732;2024-02-04T15:15:04;13.40;99.90
21019;DHT22;10667;51.056;3.732;2024-02-04T15:17:32;13.40;99.90
21019;DHT22;10667;51.056;3.732;2024-02-04T15:19:58;13.40;99.90
21019;DHT22;10667;51.056;3.732;2024-02-04T15:22:24;13.30;99.90
21019;DHT22;10667;51.056;3.732;2024-02-04T15:24:50;13.50;99.90
21019;DHT22;10667;51.056;3.732;2024-02-04T15:27:18;13.50;99.90
21019;DHT22;10667;51.056;3.732;2024-02-04T15:29:47;13.40;99.90
21019;DHT22;10667;51.056;3.732;2024-02-04T15:32:14;13.30;99.90
21019;DHT22;10667;51.056;3.732;2024-02-04T15:34:41;13.30;99.90
21019;DHT22;10667;51.056;3.732;2024-02-04T15:37:07;13.30;99.90
21019;DHT22;10667;51.056;3.732;2024-02-04T15:39:34;13.30;99.90